sensor_id;sensor_type;location;lat;lon;timestamp;pressure;altitude;pressure_sealevel;temperature;humidity
29197;BME280;62796;42.654;23.316;2023-08-24T00:01:30;94691.25;;;26.06;43.71
29197;BME280;62796;42.654;23.316;2023-08-24T00:03:56;94696.44;;;26.17;43.25
29197;BME280;62796;42.654;23.316;2023-08-24T00:06:21;94702.53;;;26.31;43.09
29197;BME280;62796;42.654;23.316;2023-08-24T00:08:46;94694.50;;;26.37;42.40
29197;BME280;62796;42.654;23.316;2023-08-24T00:11:12;94695.66;;;26.51;42.02
29197;BME280;62796;42.654;23.316;2023-08-24T00:13:41;94704.50;;;26.55;42.01
29197;BME280;62796;42.654;23.316;2023-08-24T00:16:11;94699.94;;;26.43;42.37
29197;BME280;62796;42.654;23.316;2023-08-24T00:18:37;94698.69;;;26.36;42.93
29197;BME280;62796;42.654;23.316;2023-08-24T00:21:02;94691.47;;;26.35;42.75
29197;BME280;62796;42.654;23.316;2023-08-24T00:23:27;94682.97;;;26.35;42.82
29197;BME280;62796;42.654;23.316;2023-08-24T00:25:53;94682.88;;;26.25;43.30
29197;BME280;62796;42.654;23.316;2023-08-24T00:28:18;94681.38;;;25.90;43.72
29197;BME280;62796;42.654;23.316;2023-08-24T00:30:44;94676.47;;;25.91;44.08
29197;BME280;62796;42.654;23.316;2023-08-24T00:33:09;94674.78;;;26.05;44.25
29197;BME280;62796;42.654;23.316;2023-08-24T00:35:34;94681.91;;;26.13;43.79
29197;BME280;62796;42.654;23.316;2023-08-24T00:38:00;94683.91;;;26.20;43.72
29197;BME280;62796;42.654;23.316;2023-08-24T00:40:25;94669.28;;;26.24;43.37
29197;BME280;62796;42.654;23.316;2023-08-24T00:42:50;94682.81;;;26.33;43.06
29197;BME280;62796;42.654;23.316;2023-08-24T00:45:16;94678.50;;;26.15;43.50
29197;BME280;62796;42.654;23.316;2023-08-24T00:47:47;94682.28;;;25.75;44.61
29197;BME280;62796;42.654;23.316;2023-08-24T00:50:13;94695.66;;;25.65;45.16
29197;BME280;62796;42.654;23.316;2023-08-24T00:52:40;94693.78;;;25.60;45.37
29197;BME280;62796;42.654;23.316;2023-08-24T00:55:07;94699.06;;;25.64;45.15
29197;BME280;62796;42.654;23.316;2023-08-24T00:57:33;94692.63;;;25.63;44.95
29197;BME280;62796;42.654;23.316;2023-08-24T01:00:03;94695.78;;;25.50;44.95
29197;BME280;62796;42.654;23.316;2023-08-24T01:02:31;94693.13;;;25.52;45.14
29197;BME280;62796;42.654;23.316;2023-08-24T01:04:56;94694.63;;;25.53;44.78
29197;BME280;62796;42.654;23.316;2023-08-24T01:07:23;94683.78;;;25.59;44.92
29197;BME280;62796;42.654;23.316;2023-08-24T01:09:48;94692.41;;;25.44;45.35
29197;BME280;62796;42.654;23.316;2023-08-24T01:12:19;94689.94;;;25.23;45.83
29197;BME280;62796;42.654;23.316;2023-08-24T01:14:58;94686.50;;;25.25;45.87
29197;BME280;62796;42.654;23.316;2023-08-24T01:17:29;94684.78;;;25.05;46.59
29197;BME280;62796;42.654;23.316;2023-08-24T01:19:58;94683.00;;;24.92;46.75
29197;BME280;62796;42.654;23.316;2023-08-24T01:27:29;94683.44;;;24.73;47.83
29197;BME280;62796;42.654;23.316;2023-08-24T01:29:57;94687.84;;;24.67;48.22
29197;BME280;62796;42.654;23.316;2023-08-24T01:32:24;94691.09;;;24.63;48.26
29197;BME280;62796;42.654;23.316;2023-08-24T01:34:50;94689.63;;;24.55;48.67
29197;BME280;62796;42.654;23.316;2023-08-24T01:37:16;94695.13;;;24.45;48.81
29197;BME280;62796;42.654;23.316;2023-08-24T01:40:02;94689.91;;;24.34;49.46
29197;BME280;62796;42.654;23.316;2023-08-24T01:42:37;94694.22;;;24.35;49.09
29197;BME280;62796;42.654;23.316;2023-08-24T01:45:08;94692.75;;;24.34;49.04
29197;BME280;62796;42.654;23.316;2023-08-24T01:47:36;94695.91;;;24.38;48.95
29197;BME280;62796;42.654;23.316;2023-08-24T01:50:03;94690.44;;;24.40;49.00
29197;BME280;62796;42.654;23.316;2023-08-24T01:52:29;94691.94;;;24.41;48.54
29197;BME280;62796;42.654;23.316;2023-08-24T01:54:55;94700.59;;;24.43;48.60
29197;BME280;62796;42.654;23.316;2023-08-24T01:57:20;94695.06;;;24.60;48.76
29197;BME280;62796;42.654;23.316;2023-08-24T01:59:46;94689.47;;;24.77;48.48
29197;BME280;62796;42.654;23.316;2023-08-24T02:02:11;94692.81;;;24.91;47.95
29197;BME280;62796;42.654;23.316;2023-08-24T02:04:36;94685.94;;;25.02;47.63
29197;BME280;62796;42.654;23.316;2023-08-24T02:07:02;94693.66;;;25.09;47.51
29197;BME280;62796;42.654;23.316;2023-08-24T02:09:27;94696.66;;;25.36;46.87
29197;BME280;62796;42.654;23.316;2023-08-24T02:11:53;94698.44;;;25.48;46.75
29197;BME280;62796;42.654;23.316;2023-08-24T02:14:18;94698.72;;;25.35;46.88
29197;BME280;62796;42.654;23.316;2023-08-24T02:16:43;94703.03;;;25.36;47.17
29197;BME280;62796;42.654;23.316;2023-08-24T02:19:09;94700.72;;;25.42;46.73
29197;BME280;62796;42.654;23.316;2023-08-24T02:21:37;94700.31;;;25.46;46.39
29197;BME280;62796;42.654;23.316;2023-08-24T02:24:04;94706.06;;;25.38;46.45
29197;BME280;62796;42.654;23.316;2023-08-24T02:26:30;94704.31;;;25.18;46.71
29197;BME280;62796;42.654;23.316;2023-08-24T02:28:56;94705.94;;;25.04;47.29
29197;BME280;62796;42.654;23.316;2023-08-24T02:31:22;94710.84;;;25.03;47.35
29197;BME280;62796;42.654;23.316;2023-08-24T02:33:47;94711.72;;;24.89;47.38
29197;BME280;62796;42.654;23.316;2023-08-24T02:36:14;94711.19;;;24.83;47.35
29197;BME280;62796;42.654;23.316;2023-08-24T02:38:39;94713.25;;;24.82;47.22
29197;BME280;62796;42.654;23.316;2023-08-24T02:41:06;94710.63;;;24.76;47.73
29197;BME280;62796;42.654;23.316;2023-08-24T02:43:33;94709.13;;;24.75;48.03
29197;BME280;62796;42.654;23.316;2023-08-24T02:46:00;94703.44;;;24.83;47.87
29197;BME280;62796;42.654;23.316;2023-08-24T02:48:26;94693.22;;;24.88;47.80
29197;BME280;62796;42.654;23.316;2023-08-24T02:50:52;94685.53;;;24.81;47.81
29197;BME280;62796;42.654;23.316;2023-08-24T02:53:18;94675.63;;;24.57;48.14
29197;BME280;62796;42.654;23.316;2023-08-24T02:55:43;94683.28;;;24.39;48.87
29197;BME280;62796;42.654;23.316;2023-08-24T02:58:08;94679.47;;;24.44;48.79
29197;BME280;62796;42.654;23.316;2023-08-24T03:00:34;94668.22;;;24.29;49.18
29197;BME280;62796;42.654;23.316;2023-08-24T03:02:59;94667.06;;;24.40;49.05
29197;BME280;62796;42.654;23.316;2023-08-24T03:05:25;94671.19;;;24.39;49.14
29197;BME280;62796;42.654;23.316;2023-08-24T03:07:50;94671.19;;;24.39;49.10
29197;BME280;62796;42.654;23.316;2023-08-24T03:10:15;94677.88;;;24.58;48.65
29197;BME280;62796;42.654;23.316;2023-08-24T03:12:41;94680.44;;;24.71;48.61
29197;BME280;62796;42.654;23.316;2023-08-24T03:15:06;94686.88;;;24.72;48.51
29197;BME280;62796;42.654;23.316;2023-08-24T03:17:32;94682.69;;;24.73;48.89
29197;BME280;62796;42.654;23.316;2023-08-24T03:19:57;94697.38;;;24.87;48.80
29197;BME280;62796;42.654;23.316;2023-08-24T03:22:23;94704.91;;;24.92;48.80
29197;BME280;62796;42.654;23.316;2023-08-24T03:24:48;94698.22;;;24.64;49.30
29197;BME280;62796;42.654;23.316;2023-08-24T03:27:13;94711.44;;;24.69;49.39
29197;BME280;62796;42.654;23.316;2023-08-24T03:29:39;94720.19;;;24.56;49.33
29197;BME280;62796;42.654;23.316;2023-08-24T03:32:04;94719.88;;;24.37;49.59
29197;BME280;62796;42.654;23.316;2023-08-24T03:34:29;94726.34;;;24.22;50.06
29197;BME280;62796;42.654;23.316;2023-08-24T03:36:56;94726.78;;;24.04;50.49
29197;BME280;62796;42.654;23.316;2023-08-24T03:39:21;94732.81;;;24.00;50.66
29197;BME280;62796;42.654;23.316;2023-08-24T03:41:47;94727.38;;;23.95;50.53
29197;BME280;62796;42.654;23.316;2023-08-24T03:44:12;94729.44;;;23.94;50.43
29197;BME280;62796;42.654;23.316;2023-08-24T03:46:37;94734.38;;;23.79;50.94
29197;BME280;62796;42.654;23.316;2023-08-24T03:49:03;94731.38;;;23.77;50.93
29197;BME280;62796;42.654;23.316;2023-08-24T03:51:28;94744.75;;;23.68;50.79
29197;BME280;62796;42.654;23.316;2023-08-24T03:53:53;94749.09;;;23.54;51.33
29197;BME280;62796;42.654;23.316;2023-08-24T03:56:19;94741.19;;;23.45;51.26
29197;BME280;62796;42.654;23.316;2023-08-24T03:58:44;94747.63;;;23.53;51.36
29197;BME280;62796;42.654;23.316;2023-08-24T04:01:11;94753.63;;;23.57;51.34
29197;BME280;62796;42.654;23.316;2023-08-24T04:03:36;94754.00;;;23.61;51.15
29197;BME280;62796;42.654;23.316;2023-08-24T04:06:02;94740.03;;;23.79;51.06
29197;BME280;62796;42.654;23.316;2023-08-24T04:08:27;94749.06;;;23.85;50.62
29197;BME280;62796;42.654;23.316;2023-08-24T04:10:52;94746.41;;;23.87;50.70
29197;BME280;62796;42.654;23.316;2023-08-24T04:13:18;94741.91;;;23.91;50.28
29197;BME280;62796;42.654;23.316;2023-08-24T04:15:43;94740.34;;;24.05;49.88
29197;BME280;62796;42.654;23.316;2023-08-24T04:18:09;94747.13;;;24.17;49.54
29197;BME280;62796;42.654;23.316;2023-08-24T04:20:34;94751.88;;;24.00;49.94
29197;BME280;62796;42.654;23.316;2023-08-24T04:22:59;94740.78;;;23.79;50.54
29197;BME280;62796;42.654;23.316;2023-08-24T04:25:25;94740.41;;;23.83;50.89
29197;BME280;62796;42.654;23.316;2023-08-24T04:27:50;94723.75;;;24.02;50.37
29197;BME280;62796;42.654;23.316;2023-08-24T04:30:16;94730.53;;;24.14;50.04
29197;BME280;62796;42.654;23.316;2023-08-24T04:32:41;94733.94;;;24.12;49.86
29197;BME280;62796;42.654;23.316;2023-08-24T04:35:07;94738.44;;;24.08;50.27
29197;BME280;62796;42.654;23.316;2023-08-24T04:37:33;94743.22;;;23.98;50.83
29197;BME280;62796;42.654;23.316;2023-08-24T04:39:58;94746.03;;;24.13;50.53
29197;BME280;62796;42.654;23.316;2023-08-24T04:42:23;94742.03;;;24.23;50.08
29197;BME280;62796;42.654;23.316;2023-08-24T04:44:50;94745.00;;;24.33;49.92
29197;BME280;62796;42.654;23.316;2023-08-24T04:47:16;94739.19;;;24.31;50.00
29197;BME280;62796;42.654;23.316;2023-08-24T04:49:41;94758.56;;;24.42;49.73
29197;BME280;62796;42.654;23.316;2023-08-24T04:52:07;94767.84;;;24.35;49.87
29197;BME280;62796;42.654;23.316;2023-08-24T04:54:32;94756.69;;;24.37;49.66
29197;BME280;62796;42.654;23.316;2023-08-24T04:56:58;94746.34;;;24.32;49.96
29197;BME280;62796;42.654;23.316;2023-08-24T04:59:24;94768.97;;;24.32;49.90
29197;BME280;62796;42.654;23.316;2023-08-24T05:01:49;94756.50;;;24.35;49.64
29197;BME280;62796;42.654;23.316;2023-08-24T05:04:14;94756.88;;;24.39;49.64
29197;BME280;62796;42.654;23.316;2023-08-24T05:06:40;94750.56;;;24.16;50.41
29197;BME280;62796;42.654;23.316;2023-08-24T05:09:05;94759.78;;;24.09;50.86
29197;BME280;62796;42.654;23.316;2023-08-24T05:11:31;94751.88;;;24.15;50.61
29197;BME280;62796;42.654;23.316;2023-08-24T05:13:56;94747.53;;;24.06;51.42
29197;BME280;62796;42.654;23.316;2023-08-24T05:16:22;94751.69;;;23.98;51.43
29197;BME280;62796;42.654;23.316;2023-08-24T05:18:47;94757.72;;;23.87;51.50
29197;BME280;62796;42.654;23.316;2023-08-24T05:21:12;94755.84;;;23.97;51.32
29197;BME280;62796;42.654;23.316;2023-08-24T05:23:38;94757.69;;;24.02;51.19
29197;BME280;62796;42.654;23.316;2023-08-24T05:26:03;94762.59;;;24.09;50.99
29197;BME280;62796;42.654;23.316;2023-08-24T05:28:29;94763.56;;;24.19;50.94
29197;BME280;62796;42.654;23.316;2023-08-24T05:30:55;94765.59;;;24.26;50.75
29197;BME280;62796;42.654;23.316;2023-08-24T05:33:21;94774.28;;;24.20;51.09
29197;BME280;62796;42.654;23.316;2023-08-24T05:35:51;94780.34;;;24.17;51.40
29197;BME280;62796;42.654;23.316;2023-08-24T05:38:17;94776.56;;;24.22;51.34
29197;BME280;62796;42.654;23.316;2023-08-24T05:40:43;94779.53;;;24.32;51.13
29197;BME280;62796;42.654;23.316;2023-08-24T05:43:11;94780.50;;;24.34;51.12
29197;BME280;62796;42.654;23.316;2023-08-24T05:45:37;94776.31;;;24.35;51.29
29197;BME280;62796;42.654;23.316;2023-08-24T05:48:05;94782.91;;;24.38;50.78
29197;BME280;62796;42.654;23.316;2023-08-24T05:50:31;94782.53;;;24.41;50.47
29197;BME280;62796;42.654;23.316;2023-08-24T05:52:56;94785.69;;;24.53;50.70
29197;BME280;62796;42.654;23.316;2023-08-24T05:55:22;94786.00;;;24.17;51.87
29197;BME280;62796;42.654;23.316;2023-08-24T05:57:48;94795.47;;;23.82;53.51
29197;BME280;62796;42.654;23.316;2023-08-24T06:00:14;94797.72;;;23.76;53.60
29197;BME280;62796;42.654;23.316;2023-08-24T06:02:39;94795.06;;;23.93;52.89
29197;BME280;62796;42.654;23.316;2023-08-24T06:05:06;94791.31;;;24.13;51.86
29197;BME280;62796;42.654;23.316;2023-08-24T06:07:32;94776.75;;;24.24;51.57
29197;BME280;62796;42.654;23.316;2023-08-24T06:09:57;94788.16;;;24.56;50.34
29197;BME280;62796;42.654;23.316;2023-08-24T06:12:23;94779.00;;;24.73;49.99
29197;BME280;62796;42.654;23.316;2023-08-24T06:14:49;94794.00;;;25.06;49.46
29197;BME280;62796;42.654;23.316;2023-08-24T06:17:14;94804.41;;;25.28;48.83
29197;BME280;62796;42.654;23.316;2023-08-24T06:19:39;94804.13;;;25.49;48.59
29197;BME280;62796;42.654;23.316;2023-08-24T06:22:05;94799.00;;;25.47;48.74
29197;BME280;62796;42.654;23.316;2023-08-24T06:24:31;94791.69;;;25.37;48.60
29197;BME280;62796;42.654;23.316;2023-08-24T06:26:56;94790.81;;;25.59;48.12
29197;BME280;62796;42.654;23.316;2023-08-24T06:29:22;94787.72;;;25.89;47.46
29197;BME280;62796;42.654;23.316;2023-08-24T06:31:47;94794.38;;;26.26;46.76
29197;BME280;62796;42.654;23.316;2023-08-24T06:34:12;94781.00;;;26.53;45.25
29197;BME280;62796;42.654;23.316;2023-08-24T06:36:38;94799.16;;;26.58;44.48
29197;BME280;62796;42.654;23.316;2023-08-24T06:39:03;94789.19;;;26.32;44.85
29197;BME280;62796;42.654;23.316;2023-08-24T06:41:33;94784.22;;;26.40;45.19
29197;BME280;62796;42.654;23.316;2023-08-24T06:43:59;94791.44;;;26.68;44.76
29197;BME280;62796;42.654;23.316;2023-08-24T06:46:24;94791.84;;;26.99;43.62
29197;BME280;62796;42.654;23.316;2023-08-24T06:48:50;94792.59;;;27.26;42.51
29197;BME280;62796;42.654;23.316;2023-08-24T06:51:15;94793.66;;;27.57;41.95
29197;BME280;62796;42.654;23.316;2023-08-24T06:53:41;94794.84;;;27.90;41.29
29197;BME280;62796;42.654;23.316;2023-08-24T06:56:07;94796.41;;;28.11;40.55
29197;BME280;62796;42.654;23.316;2023-08-24T06:58:34;94784.88;;;28.09;40.39
29197;BME280;62796;42.654;23.316;2023-08-24T07:00:59;94798.25;;;28.35;40.37
29197;BME280;62796;42.654;23.316;2023-08-24T07:03:25;94792.56;;;28.44;40.20
29197;BME280;62796;42.654;23.316;2023-08-24T07:05:50;94797.72;;;28.75;39.28
29197;BME280;62796;42.654;23.316;2023-08-24T07:08:16;94780.59;;;28.94;39.38
29197;BME280;62796;42.654;23.316;2023-08-24T07:10:42;94773.50;;;29.24;39.02
29197;BME280;62796;42.654;23.316;2023-08-24T07:13:08;94784.91;;;29.24;37.96
29197;BME280;62796;42.654;23.316;2023-08-24T07:15:34;94781.31;;;29.14;37.85
29197;BME280;62796;42.654;23.316;2023-08-24T07:18:03;94780.28;;;29.09;38.21
29197;BME280;62796;42.654;23.316;2023-08-24T07:20:28;94779.22;;;28.85;38.65
29197;BME280;62796;42.654;23.316;2023-08-24T07:22:54;94771.44;;;28.95;38.54
29197;BME280;62796;42.654;23.316;2023-08-24T07:25:19;94770.53;;;29.02;38.36
29197;BME280;62796;42.654;23.316;2023-08-24T07:27:46;94769.91;;;29.14;38.94
29197;BME280;62796;42.654;23.316;2023-08-24T07:30:12;94780.53;;;29.13;38.74
29197;BME280;62796;42.654;23.316;2023-08-24T07:32:38;94770.19;;;29.18;38.83
29197;BME280;62796;42.654;23.316;2023-08-24T07:35:03;94771.69;;;29.19;38.26
29197;BME280;62796;42.654;23.316;2023-08-24T07:37:31;94775.00;;;29.25;38.12
29197;BME280;62796;42.654;23.316;2023-08-24T07:39:56;94763.28;;;29.21;38.22
29197;BME280;62796;42.654;23.316;2023-08-24T07:42:22;94774.38;;;29.36;37.94
29197;BME280;62796;42.654;23.316;2023-08-24T07:44:48;94775.63;;;29.54;37.33
29197;BME280;62796;42.654;23.316;2023-08-24T07:47:14;94771.72;;;29.59;37.63
29197;BME280;62796;42.654;23.316;2023-08-24T07:49:40;94771.84;;;29.71;37.34
29197;BME280;62796;42.654;23.316;2023-08-24T07:52:10;94765.31;;;29.80;37.13
29197;BME280;62796;42.654;23.316;2023-08-24T07:54:36;94767.66;;;30.24;36.06
29197;BME280;62796;42.654;23.316;2023-08-24T07:57:01;94769.44;;;30.50;35.79
29197;BME280;62796;42.654;23.316;2023-08-24T07:59:26;94764.25;;;30.79;35.47
29197;BME280;62796;42.654;23.316;2023-08-24T08:01:52;94773.72;;;31.14;33.40
29197;BME280;62796;42.654;23.316;2023-08-24T08:04:17;94768.31;;;31.42;33.17
29197;BME280;62796;42.654;23.316;2023-08-24T08:06:43;94768.97;;;31.63;32.94
29197;BME280;62796;42.654;23.316;2023-08-24T08:09:08;94778.94;;;31.74;32.86
29197;BME280;62796;42.654;23.316;2023-08-24T08:11:33;94773.09;;;31.72;32.72
29197;BME280;62796;42.654;23.316;2023-08-24T08:14:00;94769.50;;;32.06;31.88
29197;BME280;62796;42.654;23.316;2023-08-24T08:16:25;94775.44;;;32.45;31.17
29197;BME280;62796;42.654;23.316;2023-08-24T08:18:50;94779.16;;;32.59;31.43
29197;BME280;62796;42.654;23.316;2023-08-24T08:21:17;94767.50;;;32.80;29.75
29197;BME280;62796;42.654;23.316;2023-08-24T08:23:46;94778.16;;;32.55;30.21
29197;BME280;62796;42.654;23.316;2023-08-24T08:26:12;94773.19;;;32.44;30.29
29197;BME280;62796;42.654;23.316;2023-08-24T08:28:39;94776.22;;;32.34;30.00
29197;BME280;62796;42.654;23.316;2023-08-24T08:31:04;94772.13;;;32.25;30.05
29197;BME280;62796;42.654;23.316;2023-08-24T08:33:30;94766.09;;;32.33;29.41
29197;BME280;62796;42.654;23.316;2023-08-24T08:35:56;94760.44;;;32.70;28.76
29197;BME280;62796;42.654;23.316;2023-08-24T08:38:21;94766.22;;;33.20;28.92
29197;BME280;62796;42.654;23.316;2023-08-24T08:40:51;94761.59;;;33.40;27.52
29197;BME280;62796;42.654;23.316;2023-08-24T08:43:21;94755.94;;;33.29;27.18
29197;BME280;62796;42.654;23.316;2023-08-24T08:45:49;94749.34;;;33.65;27.26
29197;BME280;62796;42.654;23.316;2023-08-24T08:48:14;94750.88;;;34.07;27.43
29197;BME280;62796;42.654;23.316;2023-08-24T08:50:40;94747.59;;;34.40;26.91
29197;BME280;62796;42.654;23.316;2023-08-24T08:53:05;94745.25;;;34.36;26.97
29197;BME280;62796;42.654;23.316;2023-08-24T08:55:31;94739.56;;;34.79;26.29
29197;BME280;62796;42.654;23.316;2023-08-24T08:57:58;94736.72;;;34.38;25.99
29197;BME280;62796;42.654;23.316;2023-08-24T09:00:25;94739.31;;;34.19;26.44
29197;BME280;62796;42.654;23.316;2023-08-24T09:02:53;94727.44;;;33.99;27.10
29197;BME280;62796;42.654;23.316;2023-08-24T09:05:19;94732.03;;;34.45;27.03
29197;BME280;62796;42.654;23.316;2023-08-24T09:07:46;94722.03;;;34.89;26.67
29197;BME280;62796;42.654;23.316;2023-08-24T09:10:12;94721.16;;;35.29;26.05
29197;BME280;62796;42.654;23.316;2023-08-24T09:12:38;94713.00;;;35.39;26.09
29197;BME280;62796;42.654;23.316;2023-08-24T09:15:07;94710.72;;;34.93;25.64
29197;BME280;62796;42.654;23.316;2023-08-24T09:17:33;94707.25;;;35.10;25.85
29197;BME280;62796;42.654;23.316;2023-08-24T09:19:59;94708.63;;;35.54;25.50
29197;BME280;62796;42.654;23.316;2023-08-24T09:22:25;94700.81;;;35.88;25.69
29197;BME280;62796;42.654;23.316;2023-08-24T09:24:51;94693.41;;;36.14;25.10
29197;BME280;62796;42.654;23.316;2023-08-24T09:27:18;94701.91;;;36.28;24.68
29197;BME280;62796;42.654;23.316;2023-08-24T09:29:50;94703.31;;;36.60;23.92
29197;BME280;62796;42.654;23.316;2023-08-24T09:32:21;94704.50;;;36.88;23.84
29197;BME280;62796;42.654;23.316;2023-08-24T09:34:47;94694.81;;;37.15;23.29
29197;BME280;62796;42.654;23.316;2023-08-24T09:37:14;94695.88;;;37.06;23.08
29197;BME280;62796;42.654;23.316;2023-08-24T09:39:41;94683.88;;;36.60;23.23
29197;BME280;62796;42.654;23.316;2023-08-24T09:42:06;94681.16;;;36.31;23.77
29197;BME280;62796;42.654;23.316;2023-08-24T09:44:31;94667.19;;;35.92;24.02
29197;BME280;62796;42.654;23.316;2023-08-24T09:46:57;94672.13;;;36.23;24.43
29197;BME280;62796;42.654;23.316;2023-08-24T09:49:22;94673.03;;;36.43;24.53
29197;BME280;62796;42.654;23.316;2023-08-24T09:51:48;94681.41;;;36.88;23.42
29197;BME280;62796;42.654;23.316;2023-08-24T09:54:16;94666.31;;;37.25;22.50
29197;BME280;62796;42.654;23.316;2023-08-24T09:56:45;94671.88;;;37.56;22.15
29197;BME280;62796;42.654;23.316;2023-08-24T09:59:15;94670.56;;;37.59;22.58
29197;BME280;62796;42.654;23.316;2023-08-24T10:01:46;94669.44;;;37.68;22.04
29197;BME280;62796;42.654;23.316;2023-08-24T10:04:14;94659.00;;;37.79;21.89
29197;BME280;62796;42.654;23.316;2023-08-24T10:06:42;94658.72;;;37.91;21.38
29197;BME280;62796;42.654;23.316;2023-08-24T10:09:12;94651.28;;;38.05;21.29
29197;BME280;62796;42.654;23.316;2023-08-24T10:11:45;94665.69;;;37.84;21.15
29197;BME280;62796;42.654;23.316;2023-08-24T10:15:02;94660.22;;;37.92;21.31
29197;BME280;62796;42.654;23.316;2023-08-24T10:17:29;94647.47;;;37.99;21.01
29197;BME280;62796;42.654;23.316;2023-08-24T10:19:55;94643.75;;;38.16;20.60
29197;BME280;62796;42.654;23.316;2023-08-24T10:22:22;94650.69;;;38.29;20.66
29197;BME280;62796;42.654;23.316;2023-08-24T10:24:48;94643.47;;;38.30;20.44
29197;BME280;62796;42.654;23.316;2023-08-24T10:27:15;94637.47;;;38.43;20.30
29197;BME280;62796;42.654;23.316;2023-08-24T10:29:41;94646.16;;;38.43;20.45
29197;BME280;62796;42.654;23.316;2023-08-24T10:32:08;94643.59;;;38.53;19.46
29197;BME280;62796;42.654;23.316;2023-08-24T10:34:34;94642.84;;;38.74;19.23
29197;BME280;62796;42.654;23.316;2023-08-24T10:37:28;94639.97;;;38.96;19.43
29197;BME280;62796;42.654;23.316;2023-08-24T10:39:53;94639.97;;;38.74;19.35
29197;BME280;62796;42.654;23.316;2023-08-24T10:42:19;94635.31;;;38.65;19.04
29197;BME280;62796;42.654;23.316;2023-08-24T10:44:47;94630.94;;;38.43;19.23
29197;BME280;62796;42.654;23.316;2023-08-24T10:47:18;94638.81;;;38.40;19.34
29197;BME280;62796;42.654;23.316;2023-08-24T10:50:04;94631.63;;;38.21;19.51
29197;BME280;62796;42.654;23.316;2023-08-24T10:52:30;94624.19;;;37.95;19.30
29197;BME280;62796;42.654;23.316;2023-08-24T10:55:00;94631.72;;;37.64;19.79
29197;BME280;62796;42.654;23.316;2023-08-24T10:57:35;94629.16;;;37.35;20.71
29197;BME280;62796;42.654;23.316;2023-08-24T11:00:11;94620.94;;;37.28;21.25
29197;BME280;62796;42.654;23.316;2023-08-24T11:02:47;94617.88;;;37.24;21.78
29197;BME280;62796;42.654;23.316;2023-08-24T11:05:27;94611.34;;;37.23;21.50
29197;BME280;62796;42.654;23.316;2023-08-24T11:08:05;94622.38;;;37.09;21.98
29197;BME280;62796;42.654;23.316;2023-08-24T11:10:36;94616.59;;;36.56;23.85
29197;BME280;62796;42.654;23.316;2023-08-24T11:13:17;94622.38;;;36.05;24.76
29197;BME280;62796;42.654;23.316;2023-08-24T11:18:30;94612.00;;;35.67;25.46
29197;BME280;62796;42.654;23.316;2023-08-24T11:20:59;94607.81;;;35.70;25.77
29197;BME280;62796;42.654;23.316;2023-08-24T11:23:25;94600.56;;;35.69;25.61
29197;BME280;62796;42.654;23.316;2023-08-24T11:25:52;94600.38;;;35.65;25.33
29197;BME280;62796;42.654;23.316;2023-08-24T11:28:29;94609.38;;;35.73;25.34
29197;BME280;62796;42.654;23.316;2023-08-24T11:30:55;94604.19;;;35.69;25.45
29197;BME280;62796;42.654;23.316;2023-08-24T11:33:32;94607.91;;;35.72;25.33
29197;BME280;62796;42.654;23.316;2023-08-24T11:36:00;94615.34;;;35.61;25.41
29197;BME280;62796;42.654;23.316;2023-08-24T11:41:16;94625.41;;;35.60;25.37
29197;BME280;62796;42.654;23.316;2023-08-24T11:43:46;94627.97;;;35.54;25.58
29197;BME280;62796;42.654;23.316;2023-08-24T11:46:16;94631.31;;;35.48;24.71
29197;BME280;62796;42.654;23.316;2023-08-24T11:48:42;94624.91;;;35.34;24.32
29197;BME280;62796;42.654;23.316;2023-08-24T11:51:09;94614.75;;;35.02;25.27
29197;BME280;62796;42.654;23.316;2023-08-24T11:53:47;94630.63;;;35.03;25.21
29197;BME280;62796;42.654;23.316;2023-08-24T11:56:14;94621.13;;;34.85;25.44
29197;BME280;62796;42.654;23.316;2023-08-24T11:58:43;94624.72;;;34.70;25.46
29197;BME280;62796;42.654;23.316;2023-08-24T12:01:10;94613.88;;;34.55;26.03
29197;BME280;62796;42.654;23.316;2023-08-24T12:03:37;94617.84;;;34.61;25.50
29197;BME280;62796;42.654;23.316;2023-08-24T12:06:10;94600.69;;;34.50;25.93
29197;BME280;62796;42.654;23.316;2023-08-24T12:08:45;94596.94;;;34.31;26.13
29197;BME280;62796;42.654;23.316;2023-08-24T12:11:13;94590.91;;;34.12;26.14
29197;BME280;62796;42.654;23.316;2023-08-24T12:13:46;94574.88;;;33.93;25.86
29197;BME280;62796;42.654;23.316;2023-08-24T12:16:14;94580.19;;;33.85;26.75
29197;BME280;62796;42.654;23.316;2023-08-24T12:18:52;94572.97;;;33.84;26.85
29197;BME280;62796;42.654;23.316;2023-08-24T12:21:19;94580.00;;;33.67;26.69
29197;BME280;62796;42.654;23.316;2023-08-24T12:24:04;94575.19;;;33.58;26.26
29197;BME280;62796;42.654;23.316;2023-08-24T12:26:34;94585.28;;;33.46;27.14
29197;BME280;62796;42.654;23.316;2023-08-24T12:29:04;94585.09;;;33.42;27.04
29197;BME280;62796;42.654;23.316;2023-08-24T12:31:30;94586.47;;;33.27;27.12
29197;BME280;62796;42.654;23.316;2023-08-24T12:34:07;94594.44;;;33.28;27.25
29197;BME280;62796;42.654;23.316;2023-08-24T12:36:37;94594.13;;;33.36;27.27
29197;BME280;62796;42.654;23.316;2023-08-24T12:39:06;94597.59;;;33.07;27.56
29197;BME280;62796;42.654;23.316;2023-08-24T12:41:35;94595.97;;;33.04;27.51
29197;BME280;62796;42.654;23.316;2023-08-24T12:44:01;94598.63;;;33.00;27.58
29197;BME280;62796;42.654;23.316;2023-08-24T12:46:36;94580.88;;;33.04;27.70
29197;BME280;62796;42.654;23.316;2023-08-24T12:49:02;94585.66;;;32.99;27.69
29197;BME280;62796;42.654;23.316;2023-08-24T12:51:27;94589.00;;;33.07;28.21
29197;BME280;62796;42.654;23.316;2023-08-24T12:53:53;94580.03;;;33.01;27.78
29197;BME280;62796;42.654;23.316;2023-08-24T12:56:18;94591.25;;;33.09;27.63
29197;BME280;62796;42.654;23.316;2023-08-24T12:58:44;94604.75;;;33.33;27.36
29197;BME280;62796;42.654;23.316;2023-08-24T13:01:11;94599.94;;;33.24;27.98